FMEE/RUN METAR and TAF weather

Enter ICAO airport designator
Station Type Date Time Source
FMEE METAR 2021/03/07 07:30 UTC NOAA

FMEE 070730Z AUTO 29022KT 9999 FEW028/// SCT045/// BKN240/// ///TCU 29/25 Q1002 TEMPO 28015G25KT 4500 SHRA BECMG FEW020 SCT030 BKN080


Station Type Date Time Source
FMEE Decoded METAR 2021/03/07 07:30 UTC NOAA

Saint-Denis / Gillot, Reunion (FMEE) 20-53S 055-31E 25M
Mar 07, 2021 - 02:30 AM EST / 2021.03.07 0730 UTC
Wind: from the WNW (290 degrees) at 25 MPH (22 KT):0
Visibility: greater than 7 mile(s):0
Sky conditions: mostly cloudy
Weather: Towering cumulus clouds observed
Temperature: 84 F (29 C)
Dew Point: 77 F (25 C)
Relative Humidity: 79%
Pressure (altimeter): 29.59 in. Hg (1002 hPa)
ob: FMEE 070730Z AUTO 29022KT 9999 FEW028/// SCT045/// BKN240/// ///TCU 29/25 Q1002 TEMPO 28015G25KT 4500 SHRA BECMG FEW020 SCT030 BKN080
cycle: 7

Station Type Date Time Source
FMEE TAF 2021/03/07 06:09 UTC NOAA

FMEE 070500Z 0706/0812 28015KT 9999 FEW020 SCT030 BKN080 PROB40
TEMPO 0706/0709 28020G30KT 4500 SHRA SCT020TCU
TEMPO 0709/0714 28015G25KT
BECMG 0714/0716 12008KT
TEMPO 0809/0812 4500 SHRA SCT020TCU

Example: see airport list